Time;durP1;ratioP1;P1;durP2;ratioP2;P2;SDS_P1;SDS_P2;PMS_P1;PMS_P2;Temp;Humidity;BMP_temperature;BMP_pressure;BME280_temperature;BME280_humidity;BME280_pressure;Samples;Min_cycle;Max_cycle;Signal;HPM_P1;HPM_P2
2022/08/11 00:01:46;;;;;;;3.20;2.40;;;;;;;;;;5134166;27;20480;-65
2022/08/11 00:04:14;;;;;;;2.37;2.17;;;;;;;;;;5134484;27;20954;-64
2022/08/11 00:06:41;;;;;;;2.50;2.30;;;;;;;;;;5134538;27;20455;-64
2022/08/11 00:09:09;;;;;;;3.90;2.70;;;;;;;;;;5134229;27;20449;-64
2022/08/11 00:11:39;;;;;;;2.40;2.13;;;;;;;;;;5134269;27;20504;-64
2022/08/11 00:14:13;;;;;;;8.07;2.20;;;;;;;;;;5134038;27;20455;-64
2022/08/11 00:16:41;;;;;;;2.50;2.30;;;;;;;;;;5134338;27;20440;-65
2022/08/11 00:19:08;;;;;;;2.37;2.17;;;;;;;;;;5134298;27;20449;-65
2022/08/11 00:21:41;;;;;;;2.17;2.00;;;;;;;;;;5133050;27;20482;-64
2022/08/11 00:24:08;;;;;;;4.03;2.90;;;;;;;;;;5134099;27;20504;-64
2022/08/11 00:26:36;;;;;;;3.23;2.13;;;;;;;;;;5134020;27;20539;-65
2022/08/11 00:29:10;;;;;;;9.13;2.63;;;;;;;;;;5134095;27;20461;-64
2022/08/11 00:31:37;;;;;;;6.50;2.70;;;;;;;;;;5134163;27;20794;-64
2022/08/11 00:34:05;;;;;;;2.53;2.33;;;;;;;;;;5133984;28;20437;-64
2022/08/11 00:36:39;;;;;;;2.80;2.60;;;;;;;;;;5133933;28;20447;-64
2022/08/11 00:39:07;;;;;;;3.17;2.33;;;;;;;;;;5133831;28;20448;-65
2022/08/11 00:41:35;;;;;;;2.87;2.67;;;;;;;;;;5133985;28;20480;-64
2022/08/11 00:44:21;;;;;;;5.00;2.67;;;;;;;;;;5133998;28;20445;-65
2022/08/11 00:46:56;;;;;;;2.83;2.07;;;;;;;;;;5133803;28;20447;-67
2022/08/11 00:49:26;;;;;;;5.07;2.20;;;;;;;;;;5133784;28;20799;-65
2022/08/11 00:52:00;;;;;;;3.43;2.57;;;;;;;;;;5134100;28;20448;-65
2022/08/11 00:54:32;;;;;;;3.17;2.20;;;;;;;;;;5133919;28;20448;-65
2022/08/11 00:57:12;;;;;;;2.40;2.20;;;;;;;;;;5133766;28;20447;-65
2022/08/11 00:59:55;;;;;;;2.60;2.40;;;;;;;;;;5133750;28;20874;-66
2022/08/11 01:02:38;;;;;;;3.70;2.33;;;;;;;;;;5133819;28;21000;-65
2022/08/11 01:05:23;;;;;;;4.30;2.80;;;;;;;;;;5133792;28;20451;-65
2022/08/11 01:08:16;;;;;;;2.90;2.70;;;;;;;;;;5133676;28;20415;-65
2022/08/11 01:10:49;;;;;;;7.03;2.50;;;;;;;;;;5133566;28;20966;-66
2022/08/11 01:13:19;;;;;;;5.03;2.30;;;;;;;;;;5133735;28;20444;-65
2022/08/11 01:15:55;;;;;;;3.10;2.60;;;;;;;;;;5133580;28;20459;-65
2022/08/11 01:18:37;;;;;;;2.60;2.33;;;;;;;;;;5133544;28;20530;-65
2022/08/11 01:21:27;;;;;;;2.33;2.13;;;;;;;;;;5133718;27;20476;-65
2022/08/11 01:24:23;;;;;;;2.90;2.70;;;;;;;;;;5133621;28;20449;-65
2022/08/11 01:27:11;;;;;;;3.10;2.17;;;;;;;;;;5133472;28;20935;-65
2022/08/11 01:30:08;;;;;;;3.70;2.33;;;;;;;;;;5127297;28;20449;-65
2022/08/11 01:33:03;;;;;;;4.97;2.80;;;;;;;;;;5134273;27;20456;-65
2022/08/11 01:36:06;;;;;;;4.03;3.07;;;;;;;;;;5137472;27;20484;-65
2022/08/11 01:38:43;;;;;;;2.50;2.30;;;;;;;;;;5137093;27;20943;-65
2022/08/11 01:44:36;;;;;;;3.80;2.83;;;;;;;;;;5137125;27;20872;-65
2022/08/11 01:44:38;;;;;;;9.30;2.83;;;;;;;;;;5136863;27;20501;-65
2022/08/11 01:47:49;;;;;;;3.00;2.50;;;;;;;;;;5136951;27;20452;-65
2022/08/11 01:50:07;;;;;;;2.70;2.50;;;;;;;;;;5136692;27;20433;-65
2022/08/11 01:52:43;;;;;;;2.60;2.40;;;;;;;;;;5137032;27;20480;-65
2022/08/11 01:55:15;;;;;;;6.30;2.10;;;;;;;;;;5136986;27;20447;-65
2022/08/11 01:57:45;;;;;;;2.70;2.50;;;;;;;;;;5136875;27;20535;-65
2022/08/11 02:00:14;;;;;;;2.80;2.60;;;;;;;;;;5136743;27;20543;-65
2022/08/11 02:02:47;;;;;;;3.97;2.50;;;;;;;;;;5137116;27;20527;-65
2022/08/11 02:05:19;;;;;;;2.47;2.37;;;;;;;;;;5136950;27;20457;-65
2022/08/11 02:07:55;;;;;;;2.43;2.23;;;;;;;;;;5136637;27;20463;-64
2022/08/11 02:13:15;;;;;;;3.60;2.30;;;;;;;;;;5136608;27;20432;-64
2022/08/11 02:15:45;;;;;;;3.57;2.60;;;;;;;;;;5136607;27;20471;-64
2022/08/11 02:18:17;;;;;;;2.50;2.27;;;;;;;;;;5136451;27;20441;-64
2022/08/11 02:23:40;;;;;;;5.03;2.87;;;;;;;;;;5136619;27;20968;-65
2022/08/11 02:26:09;;;;;;;4.60;2.47;;;;;;;;;;5136384;27;20445;-65
2022/08/11 02:28:43;;;;;;;3.03;2.83;;;;;;;;;;5136283;27;20756;-65
2022/08/11 02:34:11;;;;;;;2.73;2.53;;;;;;;;;;5136418;27;20537;-65
2022/08/11 02:36:43;;;;;;;2.50;2.30;;;;;;;;;;5136199;27;20472;-65
2022/08/11 02:39:13;;;;;;;4.70;2.63;;;;;;;;;;5136094;27;20965;-64
2022/08/11 02:44:39;;;;;;;2.30;2.20;;;;;;;;;;5134931;27;20428;-64
2022/08/11 02:47:09;;;;;;;3.47;3.17;;;;;;;;;;5135786;27;20446;-65
2022/08/11 02:49:55;;;;;;;2.30;2.20;;;;;;;;;;5135805;27;20441;-64
2022/08/11 02:52:31;;;;;;;7.43;3.40;;;;;;;;;;5135639;27;20449;-64
2022/08/11 02:55:07;;;;;;;3.33;3.03;;;;;;;;;;5135809;27;20449;-64
2022/08/11 02:57:35;;;;;;;4.40;3.03;;;;;;;;;;5135702;27;20447;-64
2022/08/11 03:00:07;;;;;;;3.73;2.73;;;;;;;;;;5135578;27;20543;-64
2022/08/11 03:02:52;;;;;;;3.47;2.40;;;;;;;;;;5135494;27;20480;-66
2022/08/11 03:05:24;;;;;;;3.10;2.87;;;;;;;;;;5135954;27;20420;-65
2022/08/11 03:08:01;;;;;;;4.77;2.80;;;;;;;;;;5135864;27;20449;-64
2022/08/11 03:10:33;;;;;;;6.00;3.43;;;;;;;;;;5135415;27;20444;-64
2022/08/11 03:18:41;;;;;;;5.77;2.67;;;;;;;;;;5135179;27;20480;-65
2022/08/11 03:21:13;;;;;;;3.07;2.77;;;;;;;;;;5135128;27;20468;-65
2022/08/11 03:23:45;;;;;;;3.67;2.90;;;;;;;;;;5135031;27;20532;-65
2022/08/11 03:26:23;;;;;;;3.60;3.30;;;;;;;;;;5135668;27;20423;-66
2022/08/11 03:28:52;;;;;;;6.20;2.70;;;;;;;;;;5135097;27;20468;-65
2022/08/11 03:31:23;;;;;;;8.70;3.30;;;;;;;;;;5134985;27;20847;-65
2022/08/11 03:34:01;;;;;;;3.17;2.97;;;;;;;;;;5134846;27;20440;-66
2022/08/11 03:36:40;;;;;;;4.93;3.23;;;;;;;;;;5135045;27;20803;-64
2022/08/11 03:39:12;;;;;;;3.70;3.40;;;;;;;;;;5135113;27;20448;-65
2022/08/11 03:41:43;;;;;;;3.23;2.93;;;;;;;;;;5135071;27;20472;-65
2022/08/11 03:44:23;;;;;;;10.37;3.43;;;;;;;;;;5134781;27;20429;-64
2022/08/11 03:47:04;;;;;;;3.03;2.70;;;;;;;;;;5134658;27;20931;-65
2022/08/11 03:49:38;;;;;;;8.57;3.70;;;;;;;;;;5135136;27;20476;-64
2022/08/11 03:52:09;;;;;;;10.67;3.40;;;;;;;;;;5134792;27;20452;-64
2022/08/11 03:54:43;;;;;;;5.63;2.67;;;;;;;;;;5134895;27;20441;-64
2022/08/11 03:57:37;;;;;;;7.00;3.43;;;;;;;;;;5134517;27;20484;-64
2022/08/11 04:00:19;;;;;;;8.80;3.80;;;;;;;;;;5134734;27;20445;-64
2022/08/11 04:03:11;;;;;;;14.20;4.70;;;;;;;;;;5134437;27;20938;-64
2022/08/11 04:05:56;;;;;;;9.97;5.27;;;;;;;;;;5134803;27;20497;-65
2022/08/11 04:08:36;;;;;;;9.83;3.73;;;;;;;;;;5134633;27;20497;-64
2022/08/11 04:11:12;;;;;;;15.97;4.03;;;;;;;;;;5134496;27;20445;-64
2022/08/11 04:15:58;;;;;;;9.70;3.50;;;;;;;;;;5134200;27;20540;-65
2022/08/11 04:16:57;;;;;;;7.37;3.10;;;;;;;;;;5111963;27;20445;-65
2022/08/11 04:19:43;;;;;;;7.90;2.90;;;;;;;;;;5134448;27;20789;-64
2022/08/11 04:22:24;;;;;;;7.47;3.37;;;;;;;;;;5134397;27;20480;-64
2022/08/11 04:25:09;;;;;;;9.17;5.77;;;;;;;;;;5134434;27;20451;-64
2022/08/11 04:27:57;;;;;;;9.90;3.47;;;;;;;;;;5134281;27;20426;-64
2022/08/11 04:30:28;;;;;;;5.20;4.27;;;;;;;;;;5100090;27;20445;-64
2022/08/11 04:33:11;;;;;;;5.80;4.10;;;;;;;;;;5134168;27;20452;-65
2022/08/11 04:35:47;;;;;;;10.70;4.20;;;;;;;;;;5134238;28;20448;-64
2022/08/11 04:38:36;;;;;;;5.90;3.77;;;;;;;;;;5134140;28;20531;-64
2022/08/11 04:41:20;;;;;;;8.73;4.33;;;;;;;;;;5134203;28;20448;-64
2022/08/11 04:44:10;;;;;;;9.50;4.07;;;;;;;;;;5134036;28;20448;-65
2022/08/11 04:46:55;;;;;;;4.33;3.90;;;;;;;;;;5134158;28;20420;-64
2022/08/11 05:01:40;;;;;;;4.80;3.80;;;;;;;;;;5090226;28;20486;-64
2022/08/11 05:07:21;;;;;;;5.20;4.10;;;;;;;;;;5133454;27;20936;-64
2022/08/11 05:10:03;;;;;;;5.60;3.60;;;;;;;;;;5134604;27;20999;-64
2022/08/11 05:12:32;;;;;;;4.00;3.60;;;;;;;;;;5137998;27;20599;-64
2022/08/11 05:34:52;;;;;;;12.20;5.30;;;;;;;;;;5137445;27;20837;-64
2022/08/11 05:37:20;;;;;;;4.97;3.93;;;;;;;;;;5137492;27;20835;-64
2022/08/11 05:56:32;;;;;;;9.57;4.57;;;;;;;;;;5136940;27;20438;-65
2022/08/11 05:59:00;;;;;;;4.63;4.30;;;;;;;;;;5136827;27;20498;-65
2022/08/11 06:01:30;;;;;;;4.63;3.83;;;;;;;;;;5136885;27;20782;-65
2022/08/11 06:04:16;;;;;;;11.53;4.57;;;;;;;;;;5136632;27;21003;-65
2022/08/11 06:06:49;;;;;;;4.50;4.10;;;;;;;;;;5136891;27;20448;-65
2022/08/11 06:09:21;;;;;;;7.67;3.90;;;;;;;;;;5136705;27;20445;-65
2022/08/11 06:11:48;;;;;;;4.70;4.30;;;;;;;;;;5136589;27;20841;-65
2022/08/11 06:14:16;;;;;;;11.63;4.90;;;;;;;;;;5136425;27;20927;-65
2022/08/11 06:16:44;;;;;;;16.60;6.73;;;;;;;;;;5136453;27;20924;-65
2022/08/11 06:19:11;;;;;;;4.77;4.30;;;;;;;;;;5136617;27;20467;-65
2022/08/11 06:21:39;;;;;;;4.57;3.93;;;;;;;;;;5136409;27;20505;-65
2022/08/11 06:24:11;;;;;;;9.03;5.10;;;;;;;;;;5136083;27;20451;-65
2022/08/11 06:26:39;;;;;;;4.30;3.60;;;;;;;;;;5136191;27;20452;-65
2022/08/11 06:29:06;;;;;;;4.60;4.23;;;;;;;;;;5136285;27;20449;-65
2022/08/11 06:31:35;;;;;;;5.77;4.33;;;;;;;;;;5136439;27;20520;-66
2022/08/11 06:34:09;;;;;;;4.50;4.17;;;;;;;;;;5136077;27;20950;-65
2022/08/11 06:36:40;;;;;;;4.70;4.20;;;;;;;;;;5136358;27;20783;-65
2022/08/11 06:39:12;;;;;;;5.90;4.40;;;;;;;;;;5135925;27;20936;-60
2022/08/11 06:41:41;;;;;;;5.13;4.27;;;;;;;;;;5135728;27;20880;-62
2022/08/11 06:44:15;;;;;;;5.70;4.17;;;;;;;;;;5135657;27;20445;-62
2022/08/11 06:46:44;;;;;;;4.10;3.70;;;;;;;;;;5136058;27;20864;-60
2022/08/11 06:51:55;;;;;;;5.60;4.00;;;;;;;;;;5135529;27;20437;-62
2022/08/11 06:54:22;;;;;;;5.90;4.23;;;;;;;;;;5135675;27;20470;-63
2022/08/11 07:02:24;;;;;;;5.27;4.00;;;;;;;;;;5135397;27;20549;-62
2022/08/11 07:04:55;;;;;;;10.87;4.00;;;;;;;;;;5135430;27;20437;-63
2022/08/11 07:16:01;;;;;;;3.40;3.17;;;;;;;;;;5135228;27;20489;-62
2022/08/11 07:29:35;;;;;;;3.10;2.90;;;;;;;;;;5135334;27;20535;-62
2022/08/11 07:32:09;;;;;;;3.57;3.27;;;;;;;;;;5134692;27;20513;-62
2022/08/11 07:34:40;;;;;;;7.07;3.37;;;;;;;;;;5135115;27;20441;-62
2022/08/11 07:37:11;;;;;;;4.23;3.20;;;;;;;;;;5128401;27;20940;-60
2022/08/11 07:39:39;;;;;;;3.20;2.90;;;;;;;;;;5134668;27;20448;-61
2022/08/11 07:42:07;;;;;;;6.23;3.77;;;;;;;;;;5134699;27;20753;-63
2022/08/11 07:48:10;;;;;;;3.90;3.60;;;;;;;;;;5135076;27;20444;-60
2022/08/11 07:52:54;;;;;;;5.03;3.10;;;;;;;;;;5134833;27;20800;-58
2022/08/11 07:55:24;;;;;;;5.83;3.70;;;;;;;;;;5134317;27;20449;-64
2022/08/11 08:19:53;;;;;;;3.37;2.87;;;;;;;;;;5134313;27;20455;-63
2022/08/11 08:22:22;;;;;;;2.97;2.77;;;;;;;;;;5134270;27;20974;-62
2022/08/11 08:24:49;;;;;;;4.53;2.83;;;;;;;;;;5133951;27;20514;-62
2022/08/11 08:27:16;;;;;;;5.93;2.93;;;;;;;;;;5133491;27;20444;-60
2022/08/11 08:32:30;;;;;;;2.77;2.57;;;;;;;;;;5133920;27;20458;-59
2022/08/11 08:34:58;;;;;;;3.13;2.80;;;;;;;;;;5133967;27;20451;-59
2022/08/11 08:37:27;;;;;;;3.27;2.73;;;;;;;;;;5134003;28;20453;-59
2022/08/11 08:39:54;;;;;;;3.10;2.80;;;;;;;;;;5134253;28;20509;-59
2022/08/11 08:42:24;;;;;;;3.60;2.70;;;;;;;;;;5133764;27;20483;-59
2022/08/11 08:44:52;;;;;;;3.03;2.77;;;;;;;;;;5137987;27;20509;-58
2022/08/11 08:47:20;;;;;;;9.20;2.60;;;;;;;;;;5137793;27;20840;-63
2022/08/11 08:49:49;;;;;;;4.50;2.67;;;;;;;;;;5138016;27;20531;-61
2022/08/11 08:52:18;;;;;;;4.87;2.80;;;;;;;;;;5136043;27;20531;-62
2022/08/11 08:54:49;;;;;;;4.50;3.10;;;;;;;;;;5127344;27;20459;-62
2022/08/11 08:57:18;;;;;;;2.90;2.70;;;;;;;;;;5128412;27;22184;-61
2022/08/11 08:59:48;;;;;;;4.00;2.70;;;;;;;;;;5124742;27;20997;-62
2022/08/11 09:02:15;;;;;;;4.60;2.20;;;;;;;;;;5126101;27;20443;-62
2022/08/11 09:04:45;;;;;;;2.67;2.47;;;;;;;;;;5104765;28;20443;-61
2022/08/11 09:07:13;;;;;;;2.40;2.20;;;;;;;;;;5102795;27;20503;-63
2022/08/11 09:09:42;;;;;;;5.57;4.67;;;;;;;;;;5115134;27;21138;-62
2022/08/11 09:12:12;;;;;;;4.03;3.00;;;;;;;;;;5110031;27;20800;-62
2022/08/11 09:15:02;;;;;;;3.20;2.30;;;;;;;;;;5106044;28;20525;-62
2022/08/11 09:17:30;;;;;;;4.33;2.90;;;;;;;;;;5117195;27;20870;-62
2022/08/11 09:20:06;;;;;;;4.13;2.50;;;;;;;;;;5119609;27;20476;-61
2022/08/11 09:28:10;;;;;;;6.10;3.23;;;;;;;;;;5116825;28;20481;-63
2022/08/11 09:30:37;;;;;;;3.77;3.00;;;;;;;;;;5116910;28;20473;-61
2022/08/11 09:33:05;;;;;;;2.90;2.60;;;;;;;;;;5116252;28;20481;-62
2022/08/11 09:35:35;;;;;;;4.40;2.93;;;;;;;;;;5127241;27;20529;-60
2022/08/11 09:40:48;;;;;;;3.07;2.37;;;;;;;;;;5130760;27;20497;-62
2022/08/11 09:46:03;;;;;;;3.40;2.47;;;;;;;;;;5137012;27;21000;-62
2022/08/11 09:48:32;;;;;;;5.03;2.40;;;;;;;;;;5136837;27;20563;-62
2022/08/11 09:51:01;;;;;;;6.30;3.27;;;;;;;;;;5136784;27;20479;-63
2022/08/11 09:53:28;;;;;;;2.97;2.67;;;;;;;;;;5136192;27;20476;-66
2022/08/11 09:55:55;;;;;;;2.70;2.50;;;;;;;;;;5136532;27;20471;-65
2022/08/11 09:58:23;;;;;;;3.10;2.83;;;;;;;;;;5136461;27;20451;-66
2022/08/11 10:00:51;;;;;;;2.67;2.40;;;;;;;;;;5136257;27;21004;-65
2022/08/11 10:03:19;;;;;;;5.60;3.20;;;;;;;;;;5136233;27;20544;-64
2022/08/11 10:08:34;;;;;;;2.70;2.50;;;;;;;;;;5136573;27;20992;-61
2022/08/11 10:11:02;;;;;;;2.37;2.27;;;;;;;;;;5136567;27;20445;-63
2022/08/11 10:13:32;;;;;;;3.07;2.70;;;;;;;;;;5136401;27;20478;-64
2022/08/11 10:16:00;;;;;;;4.67;2.93;;;;;;;;;;5136329;27;20445;-61
2022/08/11 10:18:48;;;;;;;4.03;2.30;;;;;;;;;;5136391;27;20461;-60
2022/08/11 10:21:18;;;;;;;3.20;2.90;;;;;;;;;;5136474;27;20963;-63
2022/08/11 10:34:48;;;;;;;3.60;2.97;;;;;;;;;;5115204;28;20924;-62
2022/08/11 10:37:15;;;;;;;3.10;2.80;;;;;;;;;;5115751;28;20450;-62
2022/08/11 10:39:43;;;;;;;2.20;2.00;;;;;;;;;;5115529;28;20504;-61
2022/08/11 10:44:58;;;;;;;2.60;2.40;;;;;;;;;;5115031;28;20448;-62
2022/08/11 10:47:33;;;;;;;2.60;2.40;;;;;;;;;;5117321;27;20498;-63
2022/08/11 11:01:04;;;;;;;3.23;2.27;;;;;;;;;;5115096;28;20449;-61
2022/08/11 11:03:33;;;;;;;3.90;2.53;;;;;;;;;;5114988;28;20560;-62
2022/08/11 11:06:04;;;;;;;4.43;2.40;;;;;;;;;;5113987;28;20454;-62
2022/08/11 11:11:19;;;;;;;3.20;1.90;;;;;;;;;;5114904;28;20915;-63
2022/08/11 11:19:23;;;;;;;2.60;2.40;;;;;;;;;;5114688;28;20440;-61
2022/08/11 11:21:52;;;;;;;2.33;2.13;;;;;;;;;;5114972;28;20453;-62
2022/08/11 11:24:36;;;;;;;2.43;2.23;;;;;;;;;;5114366;28;20485;-60
2022/08/11 11:27:08;;;;;;;4.33;2.40;;;;;;;;;;5114425;28;20536;-60
2022/08/11 11:29:44;;;;;;;2.23;2.13;;;;;;;;;;5115023;28;20525;-62
2022/08/11 11:32:25;;;;;;;3.93;1.87;;;;;;;;;;5114679;28;20503;-63
2022/08/11 11:35:01;;;;;;;2.70;2.40;;;;;;;;;;5114487;28;20441;-63
2022/08/11 11:37:30;;;;;;;5.87;2.60;;;;;;;;;;5114206;28;20904;-61
2022/08/11 11:39:58;;;;;;;2.23;2.03;;;;;;;;;;5114368;28;20494;-58
2022/08/11 11:42:25;;;;;;;5.20;2.30;;;;;;;;;;5114305;28;20496;-58
2022/08/11 11:44:52;;;;;;;2.10;1.90;;;;;;;;;;5114159;28;20900;-58
2022/08/11 11:47:21;;;;;;;3.73;2.13;;;;;;;;;;5114293;28;20505;-58
2022/08/11 11:49:51;;;;;;;3.83;2.00;;;;;;;;;;5114023;28;20462;-58
2022/08/11 11:52:20;;;;;;;2.43;2.00;;;;;;;;;;5113948;28;20936;-58
2022/08/11 11:54:49;;;;;;;2.53;2.20;;;;;;;;;;5113917;28;20851;-57
2022/08/11 12:02:49;;;;;;;2.70;2.03;;;;;;;;;;5113245;28;20455;-58
2022/08/11 12:05:18;;;;;;;2.10;1.90;;;;;;;;;;5113673;28;20449;-58
2022/08/11 12:10:31;;;;;;;3.00;2.10;;;;;;;;;;5113654;28;20453;-58
2022/08/11 12:15:45;;;;;;;1.63;1.53;;;;;;;;;;5113534;28;20817;-58
2022/08/11 12:18:12;;;;;;;2.90;2.57;;;;;;;;;;5113098;28;20442;-58
2022/08/11 12:20:40;;;;;;;2.17;1.90;;;;;;;;;;5113286;28;20448;-58
2022/08/11 12:28:38;;;;;;;3.13;2.20;;;;;;;;;;5113829;28;20482;-58
2022/08/11 12:31:08;;;;;;;2.50;1.70;;;;;;;;;;5113483;28;20470;-58
2022/08/11 12:33:35;;;;;;;3.10;1.70;;;;;;;;;;5113354;28;20477;-58
2022/08/11 12:36:04;;;;;;;6.23;1.90;;;;;;;;;;5113557;28;20445;-58
2022/08/11 12:38:33;;;;;;;3.40;2.07;;;;;;;;;;5113228;28;20447;-58
2022/08/11 12:46:32;;;;;;;2.23;1.70;;;;;;;;;;5113096;28;20472;-58
2022/08/11 12:52:00;;;;;;;2.80;1.30;;;;;;;;;;5113200;28;20448;-58
2022/08/11 12:54:28;;;;;;;4.27;2.20;;;;;;;;;;5112958;28;20804;-57
2022/08/11 13:05:15;;;;;;;2.80;1.50;;;;;;;;;;5112811;28;20473;-59
2022/08/11 13:07:43;;;;;;;1.93;1.20;;;;;;;;;;5113024;28;20510;-59
2022/08/11 13:10:11;;;;;;;7.93;1.57;;;;;;;;;;5112846;28;20445;-59
2022/08/11 13:12:48;;;;;;;1.20;1.10;;;;;;;;;;5112625;28;20960;-59
2022/08/11 13:15:15;;;;;;;4.20;1.60;;;;;;;;;;5112543;28;20449;-59
2022/08/11 13:17:43;;;;;;;2.30;1.67;;;;;;;;;;5112930;28;20446;-59
2022/08/11 13:20:11;;;;;;;2.10;1.50;;;;;;;;;;5112798;28;20532;-59
2022/08/11 13:22:39;;;;;;;1.80;1.60;;;;;;;;;;5112614;28;20813;-59
2022/08/11 13:25:09;;;;;;;2.30;1.20;;;;;;;;;;5112462;28;20513;-59
2022/08/11 13:27:36;;;;;;;1.50;1.40;;;;;;;;;;5112527;28;21027;-59
2022/08/11 13:32:50;;;;;;;2.60;1.30;;;;;;;;;;5116383;28;20441;-59
2022/08/11 13:35:18;;;;;;;2.93;1.23;;;;;;;;;;5116405;28;20839;-59
2022/08/11 13:37:46;;;;;;;1.50;1.40;;;;;;;;;;5116499;28;20495;-59
2022/08/11 13:40:16;;;;;;;1.73;1.37;;;;;;;;;;5116511;28;20449;-59
2022/08/11 13:42:44;;;;;;;1.83;1.67;;;;;;;;;;5116764;28;20449;-59
2022/08/11 13:45:12;;;;;;;4.43;1.63;;;;;;;;;;5116543;28;20567;-59
2022/08/11 13:47:39;;;;;;;2.23;1.67;;;;;;;;;;5116235;28;20481;-59
2022/08/11 13:50:07;;;;;;;3.77;1.90;;;;;;;;;;5116504;28;20544;-59
2022/08/11 13:52:35;;;;;;;2.10;1.30;;;;;;;;;;5116203;28;20445;-60
2022/08/11 13:55:02;;;;;;;1.80;1.33;;;;;;;;;;5116306;28;20449;-59
2022/08/11 13:57:32;;;;;;;2.60;1.30;;;;;;;;;;5116419;28;20449;-59
2022/08/11 14:00:09;;;;;;;2.30;1.57;;;;;;;;;;5116516;28;20450;-59
2022/08/11 14:02:38;;;;;;;1.93;1.30;;;;;;;;;;5116209;28;20820;-59
2022/08/11 14:05:08;;;;;;;3.90;1.90;;;;;;;;;;5116024;28;20762;-59
2022/08/11 14:07:37;;;;;;;2.03;1.40;;;;;;;;;;5116123;28;20444;-59
2022/08/11 14:10:06;;;;;;;2.47;1.80;;;;;;;;;;5116172;28;20519;-59
2022/08/11 14:15:23;;;;;;;1.50;1.40;;;;;;;;;;5115964;28;20472;-59
2022/08/11 14:17:52;;;;;;;5.03;1.67;;;;;;;;;;5115784;28;20449;-59
2022/08/11 14:20:21;;;;;;;1.67;1.40;;;;;;;;;;5116140;28;20801;-59
2022/08/11 14:22:48;;;;;;;1.63;1.53;;;;;;;;;;5115875;28;20494;-59
2022/08/11 14:25:15;;;;;;;1.53;1.43;;;;;;;;;;5115818;28;20481;-59
2022/08/11 14:27:48;;;;;;;1.50;1.30;;;;;;;;;;5115616;28;20450;-59
2022/08/11 14:32:56;;;;;;;2.17;1.40;;;;;;;;;;5115346;28;20446;-59
2022/08/11 14:35:23;;;;;;;2.43;1.40;;;;;;;;;;5115604;28;20812;-59
2022/08/11 14:37:50;;;;;;;4.30;1.60;;;;;;;;;;5115433;28;20687;-59
2022/08/11 14:48:30;;;;;;;5.93;2.50;;;;;;;;;;5115190;28;20465;-59
2022/08/11 14:50:57;;;;;;;1.67;1.40;;;;;;;;;;5115341;28;20441;-59
2022/08/11 14:53:25;;;;;;;4.30;1.67;;;;;;;;;;5115001;28;20478;-59
2022/08/11 14:58:39;;;;;;;1.20;1.10;;;;;;;;;;5115311;28;20441;-59
2022/08/11 15:03:05;;;;;;;2.40;2.20;;;;;;;;;;5115078;28;20446;-59
2022/08/11 15:03:52;;;;;;;1.77;1.40;;;;;;;;;;5114622;28;20446;-59
2022/08/11 15:06:19;;;;;;;4.77;1.23;;;;;;;;;;5114934;28;20462;-59
2022/08/11 15:08:56;;;;;;;2.87;1.40;;;;;;;;;;5115010;28;20456;-59
2022/08/11 15:14:11;;;;;;;3.80;1.37;;;;;;;;;;5114800;28;21327;-59
2022/08/11 15:19:31;;;;;;;2.60;1.20;;;;;;;;;;5114766;28;20842;-59
2022/08/11 15:24:43;;;;;;;1.30;1.20;;;;;;;;;;5114626;28;21130;-59
2022/08/11 15:38:14;;;;;;;1.53;1.13;;;;;;;;;;5114150;28;20978;-59
2022/08/11 15:46:16;;;;;;;4.17;1.53;;;;;;;;;;5114338;28;20806;-59
2022/08/11 15:48:47;;;;;;;1.67;0.97;;;;;;;;;;5113975;28;20479;-59
2022/08/11 15:51:20;;;;;;;1.60;1.30;;;;;;;;;;5113761;28;20487;-60
2022/08/11 15:53:49;;;;;;;2.07;1.50;;;;;;;;;;5114089;28;20438;-59
2022/08/11 15:56:17;;;;;;;1.60;1.47;;;;;;;;;;5114222;28;20445;-59
2022/08/11 16:04:19;;;;;;;3.30;1.40;;;;;;;;;;5113642;28;20518;-59
2022/08/11 16:06:50;;;;;;;1.30;1.20;;;;;;;;;;5113939;28;20449;-59
2022/08/11 16:09:19;;;;;;;1.13;1.03;;;;;;;;;;5114065;28;20456;-60
2022/08/11 16:11:46;;;;;;;1.60;1.20;;;;;;;;;;5113727;28;20479;-59
2022/08/11 16:17:01;;;;;;;3.07;1.20;;;;;;;;;;5113755;28;20855;-59
2022/08/11 16:19:34;;;;;;;1.53;1.10;;;;;;;;;;5113781;28;20533;-59
2022/08/11 16:22:02;;;;;;;3.73;1.20;;;;;;;;;;5114031;28;20454;-60
2022/08/11 16:24:29;;;;;;;1.07;1.00;;;;;;;;;;5113342;28;20466;-59
2022/08/11 16:26:57;;;;;;;1.50;1.40;;;;;;;;;;5113198;28;20446;-59
2022/08/11 16:29:25;;;;;;;2.17;1.37;;;;;;;;;;5113446;28;20453;-59
2022/08/11 16:40:11;;;;;;;1.47;1.37;;;;;;;;;;5095206;28;20956;-59
2022/08/11 16:48:10;;;;;;;1.20;1.10;;;;;;;;;;5113054;28;20456;-59
2022/08/11 16:50:40;;;;;;;1.43;1.13;;;;;;;;;;5113306;28;20437;-59
2022/08/11 16:53:07;;;;;;;1.67;1.30;;;;;;;;;;5113026;28;20444;-59
2022/08/11 16:55:34;;;;;;;2.20;1.07;;;;;;;;;;5113078;28;20796;-59
2022/08/11 17:00:46;;;;;;;1.97;1.20;;;;;;;;;;5113006;28;20911;-59
2022/08/11 17:14:23;;;;;;;2.63;1.20;;;;;;;;;;5116871;28;20440;-60
2022/08/11 17:16:51;;;;;;;1.40;1.30;;;;;;;;;;5116886;28;20536;-60
2022/08/11 17:19:22;;;;;;;1.20;1.10;;;;;;;;;;5117056;28;20528;-60
2022/08/11 17:24:37;;;;;;;2.30;1.53;;;;;;;;;;5116590;28;20899;-60
2022/08/11 17:27:06;;;;;;;1.43;1.30;;;;;;;;;;5116685;28;20453;-60
2022/08/11 17:29:34;;;;;;;1.40;1.20;;;;;;;;;;5116584;28;21013;-60
2022/08/11 17:37:35;;;;;;;1.30;1.20;;;;;;;;;;5116528;28;20533;-60
2022/08/11 17:40:03;;;;;;;1.50;1.40;;;;;;;;;;5116416;28;20455;-60
2022/08/11 17:48:25;;;;;;;2.20;1.50;;;;;;;;;;5073289;28;20503;-60
2022/08/11 17:50:53;;;;;;;1.97;1.50;;;;;;;;;;5100183;28;20536;-60
2022/08/11 18:01:38;;;;;;;2.50;1.40;;;;;;;;;;5116082;28;20544;-57
2022/08/11 18:04:06;;;;;;;2.10;1.40;;;;;;;;;;5115917;28;20646;-60
2022/08/11 18:06:34;;;;;;;1.37;1.27;;;;;;;;;;5115823;28;20481;-60
